createdAt,value
2018-07-15T00:01:50.531Z,60.90
2018-07-15T00:04:18.903Z,61.20
2018-07-15T00:06:47.321Z,61.60
2018-07-15T00:09:15.637Z,61.40
2018-07-15T00:11:43.970Z,61.10
2018-07-15T00:16:40.533Z,61.20
2018-07-15T00:19:08.857Z,61.20
2018-07-15T00:21:37.203Z,61.30
2018-07-15T00:24:05.554Z,61.50
2018-07-15T00:26:33.877Z,61.40
2018-07-15T00:29:02.294Z,61.00
2018-07-15T00:31:30.705Z,61.60
2018-07-15T00:33:59.041Z,61.80
2018-07-15T00:36:27.393Z,62.20
2018-07-15T00:38:55.751Z,62.40
2018-07-15T00:41:24.152Z,62.20
2018-07-15T00:43:52.508Z,62.30
2018-07-15T00:46:20.885Z,62.30
2018-07-15T00:48:49.243Z,62.20
2018-07-15T00:51:17.539Z,62.20
2018-07-15T00:53:45.894Z,62.40
2018-07-15T00:56:14.213Z,62.50
2018-07-15T00:58:42.558Z,62.80
2018-07-15T01:01:10.897Z,62.90
2018-07-15T01:03:39.246Z,64.10
2018-07-15T01:06:07.717Z,63.50
2018-07-15T01:08:36.051Z,63.40
2018-07-15T01:11:04.433Z,63.40
2018-07-15T01:13:32.770Z,63.40
2018-07-15T01:18:29.398Z,63.60
2018-07-15T01:20:57.786Z,63.50
2018-07-15T01:23:26.068Z,63.50
2018-07-15T01:25:54.391Z,63.50
2018-07-15T01:28:22.747Z,63.50
2018-07-15T01:30:51.189Z,63.50
2018-07-15T01:33:19.537Z,64.20
2018-07-15T01:35:47.886Z,63.40
2018-07-15T01:38:16.230Z,63.50
2018-07-15T01:40:45.302Z,63.70
2018-07-15T01:43:13.634Z,64.30
2018-07-15T01:45:41.953Z,64.80
2018-07-15T01:48:10.269Z,64.80
2018-07-15T01:53:06.875Z,65.20
2018-07-15T01:55:35.816Z,64.80
2018-07-15T01:58:04.227Z,64.50
2018-07-15T02:00:32.534Z,64.10
2018-07-15T02:03:00.844Z,64.20
2018-07-15T02:05:29.139Z,64.20
2018-07-15T02:07:57.473Z,64.50
2018-07-15T02:10:25.781Z,64.80
2018-07-15T02:12:54.179Z,65.30
2018-07-15T02:15:22.505Z,65.30
2018-07-15T02:17:50.848Z,65.40
2018-07-15T02:20:19.154Z,65.60
2018-07-15T02:22:47.517Z,66.10
2018-07-15T02:25:15.855Z,66.60
2018-07-15T02:27:44.182Z,65.70
2018-07-15T02:30:12.529Z,65.60
2018-07-15T02:32:40.823Z,65.30
2018-07-15T02:35:09.182Z,65.60
2018-07-15T02:37:37.505Z,65.70
2018-07-15T02:40:05.836Z,65.50
2018-07-15T02:42:34.144Z,65.60
2018-07-15T02:45:02.481Z,65.90
2018-07-15T02:47:30.803Z,65.80
2018-07-15T02:49:59.076Z,65.70
2018-07-15T02:52:27.489Z,66.70
2018-07-15T02:54:55.846Z,66.10
2018-07-15T02:57:24.168Z,65.60
2018-07-15T02:59:52.450Z,66.20
2018-07-15T03:02:20.797Z,66.60
2018-07-15T03:04:49.141Z,67.30
2018-07-15T03:07:17.480Z,67.40
2018-07-15T03:09:45.854Z,67.70
2018-07-15T03:12:14.224Z,67.60
2018-07-15T03:14:42.545Z,67.40
2018-07-15T03:17:10.869Z,67.70
2018-07-15T03:19:39.136Z,67.00
2018-07-15T03:22:07.977Z,67.30
2018-07-15T03:24:36.319Z,67.70
2018-07-15T03:27:04.653Z,67.80
2018-07-15T03:29:33.075Z,68.20
2018-07-15T03:32:01.697Z,67.50
2018-07-15T03:36:58.249Z,67.50
2018-07-15T03:39:26.536Z,67.90
2018-07-15T03:41:54.805Z,68.00
2018-07-15T03:44:23.118Z,68.10
2018-07-15T03:46:51.379Z,68.40
2018-07-15T03:49:19.684Z,68.20
2018-07-15T03:51:47.972Z,68.10
2018-07-15T03:54:16.505Z,67.50
2018-07-15T03:56:44.805Z,67.50
2018-07-15T03:59:13.120Z,67.60
2018-07-15T04:01:41.567Z,67.70
2018-07-15T04:04:09.883Z,67.30
2018-07-15T04:09:06.966Z,66.60
2018-07-15T04:11:35.717Z,66.60
2018-07-15T04:14:04.140Z,66.50
2018-07-15T04:16:32.625Z,66.20
2018-07-15T04:19:01.754Z,66.40
2018-07-15T04:21:30.068Z,66.50
2018-07-15T04:26:26.673Z,66.70
2018-07-15T04:28:54.948Z,67.10
2018-07-15T04:31:23.232Z,67.60
2018-07-15T04:33:52.493Z,67.30
2018-07-15T04:36:20.829Z,67.40
2018-07-15T04:38:49.140Z,67.20
2018-07-15T04:41:17.458Z,68.00
2018-07-15T04:43:45.829Z,68.30
2018-07-15T04:46:14.178Z,68.50
2018-07-15T04:48:42.493Z,68.40
2018-07-15T04:51:10.824Z,68.60
2018-07-15T04:53:39.142Z,68.50
2018-07-15T04:56:07.485Z,67.70
2018-07-15T04:58:35.808Z,67.30
2018-07-15T05:01:04.395Z,67.10
2018-07-15T05:03:32.694Z,66.80
2018-07-15T05:08:29.320Z,66.50
2018-07-15T05:10:57.625Z,66.60
2018-07-15T05:13:26.011Z,66.30
2018-07-15T05:15:54.359Z,66.30
2018-07-15T05:20:51.011Z,65.30
2018-07-15T05:23:19.292Z,64.90
2018-07-15T05:25:47.649Z,64.50
2018-07-15T05:28:15.965Z,64.40
2018-07-15T05:30:44.307Z,64.20
2018-07-15T05:33:12.624Z,63.80
2018-07-15T05:35:40.964Z,63.70
2018-07-15T05:38:09.417Z,64.50
2018-07-15T05:40:37.729Z,63.60
2018-07-15T05:45:34.309Z,63.70
2018-07-15T05:48:02.648Z,63.80
2018-07-15T05:52:59.252Z,62.70
2018-07-15T05:55:27.529Z,62.80
2018-07-15T05:57:55.896Z,62.60
2018-07-15T06:00:24.260Z,62.40
2018-07-15T06:02:52.635Z,61.90
2018-07-15T06:05:20.992Z,61.40
2018-07-15T06:07:49.316Z,61.60
2018-07-15T06:10:17.605Z,61.00
2018-07-15T06:12:45.946Z,60.80
2018-07-15T06:15:14.331Z,60.00
2018-07-15T06:17:42.650Z,59.80
2018-07-15T06:20:11.003Z,58.60
2018-07-15T06:22:39.377Z,58.30
2018-07-15T06:25:07.822Z,57.70
2018-07-15T06:27:36.349Z,57.60
2018-07-15T06:30:04.850Z,57.00
2018-07-15T06:32:33.173Z,56.10
2018-07-15T06:35:01.506Z,56.20
2018-07-15T06:37:30.008Z,56.30
2018-07-15T06:39:58.442Z,56.40
2018-07-15T06:42:26.791Z,55.10
2018-07-15T06:44:55.313Z,55.20
2018-07-15T06:47:23.770Z,54.90
2018-07-15T06:49:52.171Z,54.50
2018-07-15T06:52:20.575Z,54.70
2018-07-15T06:54:48.972Z,54.00
2018-07-15T06:57:17.370Z,53.90
2018-07-15T06:59:45.685Z,53.70
2018-07-15T07:02:14.172Z,53.60
2018-07-15T07:04:42.574Z,53.00
2018-07-15T07:07:10.998Z,53.10
2018-07-15T07:09:39.284Z,53.40
2018-07-15T07:12:07.684Z,53.50
2018-07-15T07:14:36.143Z,52.30
2018-07-15T07:17:04.569Z,52.50
2018-07-15T07:19:32.901Z,52.10
2018-07-15T07:22:01.321Z,52.40
2018-07-15T07:24:29.737Z,52.10
2018-07-15T07:26:58.110Z,51.80
2018-07-15T07:29:26.594Z,51.40
2018-07-15T07:31:55.007Z,51.70
2018-07-15T07:34:23.359Z,51.20
2018-07-15T07:36:51.844Z,51.10
2018-07-15T07:39:20.212Z,51.10
2018-07-15T07:41:48.670Z,51.10
2018-07-15T07:44:17.154Z,51.20
2018-07-15T07:46:45.589Z,49.90
2018-07-15T07:51:42.438Z,50.10
2018-07-15T07:54:10.833Z,50.10
2018-07-15T07:56:39.165Z,50.10
2018-07-15T07:59:07.622Z,50.00
2018-07-15T08:01:36.009Z,50.50
2018-07-15T08:04:04.362Z,50.40
2018-07-15T08:06:32.683Z,51.20
2018-07-15T08:09:01.098Z,50.90
2018-07-15T08:13:57.657Z,51.00
2018-07-15T08:16:26.072Z,50.80
2018-07-15T08:18:54.498Z,50.20
2018-07-15T08:21:22.821Z,49.70
2018-07-15T08:23:51.198Z,49.20
2018-07-15T08:26:19.659Z,49.20
2018-07-15T08:28:48.192Z,49.10
2018-07-15T08:31:17.959Z,49.10
2018-07-15T08:33:46.472Z,49.10
2018-07-15T08:36:14.932Z,49.20
2018-07-15T08:38:43.402Z,49.30
2018-07-15T08:41:11.763Z,49.30
2018-07-15T08:43:40.169Z,48.60
2018-07-15T08:46:08.618Z,48.50
2018-07-15T08:48:36.971Z,48.30
2018-07-15T08:51:05.807Z,48.70
2018-07-15T08:53:34.154Z,48.60
2018-07-15T08:56:02.642Z,48.50
2018-07-15T08:58:31.027Z,48.30
2018-07-15T09:00:59.475Z,47.80
2018-07-15T09:03:27.883Z,48.40
2018-07-15T09:05:56.178Z,48.30
2018-07-15T09:08:24.508Z,47.70
2018-07-15T09:10:52.984Z,48.40
2018-07-15T09:13:21.379Z,48.10
2018-07-15T09:15:49.795Z,48.40
2018-07-15T09:18:18.302Z,48.10
2018-07-15T09:20:46.632Z,48.30
2018-07-15T09:23:15.109Z,47.40
2018-07-15T09:25:43.463Z,46.50
2018-07-15T09:28:11.908Z,47.50
2018-07-15T09:30:40.298Z,47.20
2018-07-15T09:33:08.711Z,47.30
2018-07-15T09:35:37.108Z,47.50
2018-07-15T09:38:05.534Z,47.50
2018-07-15T09:40:33.882Z,47.40
2018-07-15T09:43:02.427Z,48.00
2018-07-15T09:45:30.878Z,48.00
2018-07-15T09:47:59.255Z,47.90
2018-07-15T09:52:55.984Z,48.70
2018-07-15T09:55:24.417Z,48.90
2018-07-15T09:57:52.943Z,48.70
2018-07-15T10:00:26.957Z,48.10
2018-07-15T10:02:55.532Z,48.10
2018-07-15T10:05:24.139Z,48.00
2018-07-15T10:07:52.816Z,47.80
2018-07-15T10:10:21.511Z,46.90
2018-07-15T10:12:49.878Z,46.70
2018-07-15T10:15:18.233Z,47.30
2018-07-15T10:20:14.984Z,46.60
2018-07-15T10:22:43.410Z,46.20
2018-07-15T10:25:11.741Z,46.00
2018-07-15T10:27:41.979Z,46.40
2018-07-15T10:30:10.387Z,46.30
2018-07-15T10:32:38.744Z,46.60
2018-07-15T10:40:03.798Z,45.50
2018-07-15T10:42:32.158Z,44.00
2018-07-15T10:47:28.777Z,43.80
2018-07-15T10:49:57.091Z,43.80
2018-07-15T10:52:25.493Z,42.90
2018-07-15T10:54:53.875Z,43.80
2018-07-15T10:57:22.296Z,43.50
2018-07-15T10:59:50.782Z,43.40
2018-07-15T11:02:19.162Z,43.50
2018-07-15T11:04:47.603Z,43.30
2018-07-15T11:07:15.971Z,43.30
2018-07-15T11:09:44.376Z,43.10
2018-07-15T11:12:12.813Z,43.40
2018-07-15T11:14:41.181Z,42.70
2018-07-15T11:17:09.536Z,42.60
2018-07-15T11:19:37.903Z,42.60
2018-07-15T11:22:06.378Z,42.70
2018-07-15T11:24:34.840Z,43.20
2018-07-15T11:27:03.173Z,42.20
2018-07-15T11:29:31.486Z,42.40
2018-07-15T11:32:00.104Z,42.80
2018-07-15T11:34:28.444Z,42.60
2018-07-15T11:36:56.989Z,42.50
2018-07-15T11:39:25.302Z,42.80
2018-07-15T11:41:53.739Z,42.90
2018-07-15T11:44:22.248Z,43.00
2018-07-15T11:46:50.624Z,43.30
2018-07-15T11:49:19.065Z,44.10
2018-07-15T11:51:47.469Z,45.50
2018-07-15T11:54:15.898Z,48.60
2018-07-15T11:56:44.393Z,49.10
2018-07-15T11:59:12.869Z,50.70
2018-07-15T12:01:41.403Z,51.70
2018-07-15T12:04:09.727Z,52.30
2018-07-15T12:06:38.163Z,53.50
2018-07-15T12:09:06.942Z,54.50
2018-07-15T12:11:35.339Z,56.60
2018-07-15T12:14:03.730Z,57.70
2018-07-15T12:16:32.364Z,59.40
2018-07-15T12:19:00.999Z,64.10
2018-07-15T12:21:29.373Z,66.60
2018-07-15T12:23:57.780Z,64.90
2018-07-15T12:26:26.238Z,66.50
2018-07-15T12:28:54.641Z,70.00
2018-07-15T12:31:23.023Z,74.40
2018-07-15T12:33:51.469Z,78.40
2018-07-15T12:36:19.824Z,76.60
2018-07-15T12:38:48.155Z,75.70
2018-07-15T12:41:16.523Z,72.90
2018-07-15T12:43:44.986Z,73.10
2018-07-15T12:46:13.402Z,72.50
2018-07-15T12:48:41.758Z,70.90
2018-07-15T12:51:10.238Z,70.90
2018-07-15T12:53:38.698Z,70.10
2018-07-15T12:58:35.372Z,65.90
2018-07-15T13:01:03.829Z,67.30
2018-07-15T13:03:32.242Z,62.80
2018-07-15T13:06:00.663Z,60.70
2018-07-15T13:08:29.068Z,61.00
2018-07-15T13:10:57.444Z,61.40
2018-07-15T13:13:25.851Z,62.80
2018-07-15T13:15:54.301Z,60.60
2018-07-15T13:18:22.726Z,61.10
2018-07-15T13:20:51.178Z,59.40
2018-07-15T13:23:19.810Z,59.00
2018-07-15T13:25:48.285Z,60.20
2018-07-15T13:28:16.742Z,54.00
2018-07-15T13:30:45.150Z,54.00
2018-07-15T13:33:13.605Z,52.30
2018-07-15T13:35:41.995Z,52.00
2018-07-15T13:38:10.368Z,50.10
2018-07-15T13:40:38.842Z,50.00
2018-07-15T13:43:07.297Z,50.40
2018-07-15T13:48:03.940Z,49.00
2018-07-15T13:50:32.328Z,49.90
2018-07-15T13:53:00.694Z,48.00
2018-07-15T13:57:57.370Z,47.20
2018-07-15T14:00:25.800Z,45.50
2018-07-15T14:02:54.328Z,46.40
2018-07-15T14:05:22.673Z,48.20
2018-07-15T14:10:19.426Z,45.50
2018-07-15T14:12:47.738Z,45.30
2018-07-15T14:15:16.109Z,45.10
2018-07-15T14:17:44.463Z,44.20
2018-07-15T14:20:12.800Z,44.60
2018-07-15T14:22:41.186Z,44.60
2018-07-15T14:25:09.588Z,44.50
2018-07-15T14:27:37.959Z,43.80
2018-07-15T14:32:35.654Z,41.60
2018-07-15T14:35:03.987Z,39.80
2018-07-15T14:37:32.558Z,39.80
2018-07-15T14:40:00.846Z,39.00
2018-07-15T14:42:29.218Z,38.50
2018-07-15T14:44:57.534Z,39.10
2018-07-15T14:47:26.018Z,39.10
2018-07-15T14:49:54.383Z,38.20
2018-07-15T14:52:22.755Z,38.60
2018-07-15T14:54:51.212Z,38.20
2018-07-15T14:57:19.628Z,39.60
2018-07-15T14:59:48.023Z,38.80
2018-07-15T15:02:16.378Z,39.10
2018-07-15T15:04:44.877Z,38.70
2018-07-15T15:07:13.330Z,39.50
2018-07-15T15:09:41.730Z,37.90
2018-07-15T15:12:10.112Z,38.60
2018-07-15T15:14:38.565Z,38.60
2018-07-15T15:17:07.010Z,39.40
2018-07-15T15:19:35.390Z,39.40
2018-07-15T15:22:03.914Z,39.40
2018-07-15T15:24:32.302Z,40.30
2018-07-15T15:27:00.688Z,40.70
2018-07-15T15:29:29.140Z,40.30
2018-07-15T15:31:57.524Z,40.50
2018-07-15T15:34:25.889Z,40.90
2018-07-15T15:39:22.516Z,41.80
2018-07-15T15:41:50.938Z,41.30
2018-07-15T15:44:19.442Z,40.80
2018-07-15T15:46:47.888Z,40.60
2018-07-15T15:49:16.302Z,40.40
2018-07-15T15:51:44.795Z,39.10
2018-07-15T15:54:13.213Z,38.90
2018-07-15T15:56:41.626Z,39.60
2018-07-15T15:59:10.055Z,39.50
2018-07-15T16:01:39.579Z,38.90
2018-07-15T16:04:07.927Z,38.90
2018-07-15T16:06:36.371Z,37.70
2018-07-15T16:09:07.016Z,37.60
2018-07-15T16:11:35.503Z,37.70
2018-07-15T16:14:04.450Z,37.90
2018-07-15T16:16:32.881Z,38.40
2018-07-15T16:19:01.280Z,38.40
2018-07-15T16:21:29.721Z,38.00
2018-07-15T16:23:58.119Z,38.60
2018-07-15T16:26:26.746Z,38.60
2018-07-15T16:28:55.213Z,38.40
2018-07-15T16:36:20.062Z,38.50
2018-07-15T16:38:48.417Z,39.90
2018-07-15T16:43:45.114Z,39.50
2018-07-15T16:46:13.575Z,39.80
2018-07-15T16:48:42.042Z,40.00
2018-07-15T16:51:10.449Z,39.60
2018-07-15T16:53:38.847Z,39.40
2018-07-15T16:56:07.311Z,39.90
2018-07-15T16:58:35.806Z,40.20
2018-07-15T17:01:04.400Z,40.70
2018-07-15T17:03:32.874Z,40.70
2018-07-15T17:06:01.721Z,40.80
2018-07-15T17:08:30.116Z,40.40
2018-07-15T17:10:58.626Z,39.90
2018-07-15T17:13:27.022Z,40.00
2018-07-15T17:18:23.639Z,39.70
2018-07-15T17:20:52.039Z,38.60
2018-07-15T17:23:20.450Z,38.50
2018-07-15T17:25:48.817Z,39.40
2018-07-15T17:28:17.207Z,40.00
2018-07-15T17:30:45.593Z,40.20
2018-07-15T17:33:14.028Z,39.10
2018-07-15T17:35:42.594Z,38.30
2018-07-15T17:38:11.090Z,38.30
2018-07-15T17:40:39.565Z,38.30
2018-07-15T17:43:07.965Z,38.30
2018-07-15T17:45:36.380Z,38.90
2018-07-15T17:48:04.815Z,37.70
2018-07-15T17:50:33.250Z,36.70
2018-07-15T17:53:01.590Z,37.20
2018-07-15T17:55:29.981Z,37.00
2018-07-15T17:58:01.349Z,36.90
2018-07-15T18:00:29.819Z,36.20
2018-07-15T18:02:58.238Z,36.10
2018-07-15T18:05:26.939Z,36.60
2018-07-15T18:07:55.547Z,35.90
2018-07-15T18:10:23.932Z,35.70
2018-07-15T18:12:52.375Z,35.80
2018-07-15T18:15:21.031Z,36.30
2018-07-15T18:17:49.552Z,36.40
2018-07-15T18:20:17.985Z,37.20
2018-07-15T18:22:46.533Z,36.60
2018-07-15T18:25:15.049Z,36.90
2018-07-15T18:27:43.491Z,36.70
2018-07-15T18:30:11.898Z,37.20
2018-07-15T18:32:40.606Z,37.60
2018-07-15T18:35:09.258Z,38.00
2018-07-15T18:37:37.981Z,38.20
2018-07-15T18:40:06.826Z,38.40
2018-07-15T18:42:35.631Z,38.40
2018-07-15T18:47:32.427Z,38.00
2018-07-15T18:50:00.855Z,38.30
2018-07-15T18:52:29.216Z,38.50
2018-07-15T18:54:57.703Z,38.50
2018-07-15T18:57:26.998Z,38.50
2018-07-15T18:59:55.542Z,38.80
2018-07-15T19:02:24.002Z,38.90
2018-07-15T19:04:52.404Z,38.60
2018-07-15T19:09:49.816Z,40.10
2018-07-15T19:12:18.242Z,40.20
2018-07-15T19:17:15.178Z,43.00
2018-07-15T19:22:12.054Z,43.20
2018-07-15T19:24:40.594Z,44.10
2018-07-15T19:27:09.022Z,44.50
2018-07-15T19:32:05.819Z,45.40
2018-07-15T19:34:34.362Z,47.10
2018-07-15T19:39:31.162Z,46.40
2018-07-15T19:41:59.632Z,47.20
2018-07-15T19:44:28.180Z,47.80
2018-07-15T19:49:25.152Z,48.60
2018-07-15T19:51:53.517Z,48.80
2018-07-15T19:56:50.261Z,49.10
2018-07-15T19:59:18.769Z,49.40
2018-07-15T20:01:47.247Z,49.60
2018-07-15T20:04:15.720Z,49.70
2018-07-15T20:06:44.213Z,50.10
2018-07-15T20:09:12.734Z,49.70
2018-07-15T20:11:41.216Z,50.10
2018-07-15T20:14:09.651Z,50.30
2018-07-15T20:16:38.084Z,50.00
2018-07-15T20:19:06.576Z,50.10
2018-07-15T20:21:35.012Z,49.90
2018-07-15T20:24:03.463Z,49.80
2018-07-15T20:26:31.926Z,49.60
2018-07-15T20:33:56.818Z,49.60
2018-07-15T20:36:25.348Z,49.90
2018-07-15T20:38:53.821Z,50.10
2018-07-15T20:41:22.315Z,49.90
2018-07-15T20:43:50.771Z,50.10
2018-07-15T20:48:47.445Z,50.50
2018-07-15T20:51:15.905Z,50.40
2018-07-15T20:58:40.877Z,52.00
2018-07-15T21:01:09.283Z,52.70
2018-07-15T21:03:37.720Z,52.40
2018-07-15T21:06:06.141Z,52.90
2018-07-15T21:08:34.593Z,51.30
2018-07-15T21:11:02.953Z,51.30
2018-07-15T21:13:31.369Z,52.40
2018-07-15T21:15:59.733Z,51.90
2018-07-15T21:18:28.158Z,52.40
2018-07-15T21:23:24.932Z,52.40
2018-07-15T21:25:53.276Z,52.70
2018-07-15T21:28:21.668Z,53.30
2018-07-15T21:35:46.520Z,53.20
2018-07-15T21:38:14.941Z,53.10
2018-07-15T21:40:43.332Z,53.30
2018-07-15T21:43:11.717Z,52.70
2018-07-15T21:48:08.395Z,53.30
2018-07-15T21:50:36.799Z,52.10
2018-07-15T21:53:05.455Z,52.30
2018-07-15T21:55:33.907Z,52.70
2018-07-15T21:58:02.309Z,53.20
2018-07-15T22:00:30.733Z,53.50
2018-07-15T22:02:59.185Z,53.40
2018-07-15T22:08:12.650Z,53.20
2018-07-15T22:10:43.730Z,53.30
2018-07-15T22:13:12.071Z,53.40
2018-07-15T22:15:40.934Z,53.50
2018-07-15T22:18:09.327Z,53.70
2018-07-15T22:20:38.126Z,53.70
2018-07-15T22:23:07.300Z,54.00
2018-07-15T22:25:35.758Z,54.20
2018-07-15T22:28:04.159Z,53.70
2018-07-15T22:30:33.261Z,53.60
2018-07-15T22:33:01.574Z,53.70
2018-07-15T22:35:30.014Z,53.80
2018-07-15T22:37:58.450Z,54.40
2018-07-15T22:40:26.858Z,54.90
2018-07-15T22:42:55.190Z,54.30
2018-07-15T22:45:23.593Z,54.40
2018-07-15T22:47:51.969Z,54.40
2018-07-15T22:57:45.227Z,54.50
2018-07-15T23:00:13.654Z,54.60
2018-07-15T23:02:42.026Z,54.00
2018-07-15T23:10:44.581Z,54.50
2018-07-15T23:13:13.423Z,54.40
2018-07-15T23:15:42.203Z,54.50
2018-07-15T23:18:10.578Z,54.40
2018-07-15T23:20:39.821Z,55.00
2018-07-15T23:23:08.948Z,54.40
2018-07-15T23:25:37.276Z,54.40
2018-07-15T23:28:06.547Z,54.50
2018-07-15T23:30:35.507Z,54.60
2018-07-15T23:33:04.432Z,54.60
2018-07-15T23:35:32.950Z,54.50
2018-07-15T23:38:01.253Z,54.50
2018-07-15T23:40:29.729Z,54.50
2018-07-15T23:42:58.717Z,54.80
2018-07-15T23:45:27.989Z,55.50
2018-07-15T23:47:56.378Z,55.70
2018-07-15T23:50:25.196Z,56.40
2018-07-15T23:52:53.722Z,56.00
2018-07-15T23:55:22.264Z,55.50
2018-07-15T23:57:50.761Z,55.60
